Time;durP1;ratioP1;P1;durP2;ratioP2;P2;SDS_P1;SDS_P2;PMS_P1;PMS_P2;Temp;Humidity;BMP_temperature;BMP_pressure;BME280_temperature;BME280_humidity;BME280_pressure;Samples;Min_cycle;Max_cycle;Signal;HPM_P1;HPM_P2
2022/04/16 00:01:38;;;;;;;7.72;5.18;;;12.10;65.40;;;;;;5066624;28;20055;-59
2022/04/16 00:04:04;;;;;;;6.75;4.97;;;12.10;66.10;;;;;;5072501;28;20086;-59
2022/04/16 00:06:30;;;;;;;5.85;4.47;;;12.00;65.60;;;;;;5070213;28;20028;-59
2022/04/16 00:08:55;;;;;;;7.38;5.10;;;12.10;65.80;;;;;;5074576;28;20079;-59
2022/04/16 00:11:21;;;;;;;5.90;4.80;;;12.10;65.90;;;;;;5066346;28;20122;-59
2022/04/16 00:13:50;;;;;;;8.50;4.80;;;12.00;65.90;;;;;;5072928;28;20036;-59
2022/04/16 00:16:17;;;;;;;8.27;5.20;;;12.00;65.90;;;;;;5074191;28;20047;-59
2022/04/16 00:18:46;;;;;;;6.93;5.25;;;12.00;66.00;;;;;;5069066;28;20032;-59
2022/04/16 00:21:12;;;;;;;6.82;5.30;;;12.00;66.30;;;;;;5076183;28;20035;-59
2022/04/16 00:23:40;;;;;;;6.95;5.18;;;11.90;66.30;;;;;;5071406;28;20052;-59
2022/04/16 00:26:07;;;;;;;7.88;5.63;;;11.90;66.60;;;;;;5068131;28;20037;-59
2022/04/16 00:28:35;;;;;;;7.38;5.60;;;11.90;66.60;;;;;;5076153;28;20104;-59
2022/04/16 00:31:01;;;;;;;6.85;5.22;;;11.90;66.70;;;;;;5068143;28;20472;-59
2022/04/16 00:33:27;;;;;;;9.10;5.72;;;11.90;66.90;;;;;;5066018;28;20376;-59
2022/04/16 00:35:53;;;;;;;7.63;5.45;;;11.80;66.90;;;;;;5076050;28;20081;-61
2022/04/16 00:38:19;;;;;;;6.60;5.28;;;11.80;66.90;;;;;;5074703;28;20086;-57
2022/04/16 00:40:45;;;;;;;6.85;5.13;;;11.80;67.00;;;;;;5071704;28;20047;-57
2022/04/16 00:43:21;;;;;;;8.18;5.38;;;11.80;67.20;;;;;;5073777;28;20024;-57
2022/04/16 00:45:47;;;;;;;6.32;4.80;;;11.70;67.40;;;;;;5073699;28;20029;-57
2022/04/16 00:48:13;;;;;;;9.02;5.43;;;11.70;67.40;;;;;;5075736;28;20039;-57
2022/04/16 00:50:40;;;;;;;6.57;5.45;;;11.70;67.60;;;;;;5073657;28;20644;-57
2022/04/16 00:53:06;;;;;;;6.68;5.28;;;11.70;67.70;;;;;;5066493;28;20491;-57
2022/04/16 00:55:37;;;;;;;7.38;5.60;;;11.70;67.80;;;;;;5053341;28;20123;-57
2022/04/16 00:58:02;;;;;;;7.10;5.63;;;11.70;67.90;;;;;;5082836;28;20032;-57
2022/04/16 01:00:28;;;;;;;8.27;5.70;;;11.60;67.80;;;;;;5074025;28;20118;-58
2022/04/16 01:02:56;;;;;;;6.65;5.70;;;11.70;68.00;;;;;;5066185;28;20033;-56
2022/04/16 01:05:22;;;;;;;8.63;6.13;;;11.60;68.10;;;;;;5070721;28;20093;-57
2022/04/16 01:07:57;;;;;;;6.53;5.45;;;11.60;68.10;;;;;;5065354;28;20045;-57
2022/04/16 01:10:26;;;;;;;7.93;5.90;;;11.60;68.90;;;;;;5082477;28;20383;-57
2022/04/16 01:12:56;;;;;;;8.18;6.07;;;11.60;68.30;;;;;;5075384;28;20016;-58
2022/04/16 01:15:24;;;;;;;8.02;6.22;;;11.60;68.40;;;;;;5074617;28;20120;-58
2022/04/16 01:17:51;;;;;;;7.57;6.10;;;11.60;68.50;;;;;;5075085;28;20032;-58
2022/04/16 01:20:18;;;;;;;6.72;5.65;;;11.60;68.50;;;;;;5068760;28;20033;-58
2022/04/16 01:22:51;;;;;;;7.35;5.93;;;11.60;68.50;;;;;;5075354;28;20024;-58
2022/04/16 01:25:18;;;;;;;6.28;5.30;;;11.60;68.50;;;;;;5073091;28;20060;-58
2022/04/16 01:27:45;;;;;;;7.35;5.78;;;11.60;68.50;;;;;;5072774;28;20033;-58
2022/04/16 01:30:12;;;;;;;7.45;6.10;;;11.60;68.50;;;;;;5075529;28;20029;-58
2022/04/16 01:32:38;;;;;;;7.55;5.45;;;11.50;68.70;;;;;;5075076;28;20035;-58
2022/04/16 01:35:07;;;;;;;8.43;6.50;;;11.50;68.80;;;;;;5075205;28;20052;-58
2022/04/16 01:37:34;;;;;;;7.38;5.85;;;11.40;69.00;;;;;;5071045;28;20458;-58
2022/04/16 01:40:04;;;;;;;7.00;5.93;;;11.50;69.10;;;;;;5075164;28;20032;-58
2022/04/16 01:42:32;;;;;;;6.57;5.70;;;11.40;69.10;;;;;;5073978;28;20028;-58
2022/04/16 01:45:00;;;;;;;6.43;5.63;;;11.40;69.10;;;;;;5065195;28;20035;-58
2022/04/16 01:47:27;;;;;;;7.50;5.88;;;11.40;69.20;;;;;;5065439;28;20032;-58
2022/04/16 01:49:53;;;;;;;8.05;6.05;;;11.40;69.40;;;;;;5074948;28;20060;-57
2022/04/16 01:52:19;;;;;;;7.35;5.75;;;11.40;69.50;;;;;;5075267;28;20134;-58
2022/04/16 01:54:45;;;;;;;6.93;5.47;;;11.40;69.40;;;;;;5073513;28;20476;-58
2022/04/16 01:57:10;;;;;;;7.25;6.53;;;11.40;69.50;;;;;;5074601;28;20531;-58
2022/04/16 01:59:36;;;;;;;7.57;5.68;;;11.40;69.50;;;;;;5078709;28;20510;-58
2022/04/16 02:02:03;;;;;;;7.05;6.28;;;11.30;69.60;;;;;;5067506;28;20037;-58
2022/04/16 02:04:29;;;;;;;8.65;6.55;;;11.30;69.50;;;;;;5072680;28;20029;-58
2022/04/16 02:06:55;;;;;;;6.97;5.75;;;11.30;69.70;;;;;;5074385;28;20082;-58
2022/04/16 02:09:20;;;;;;;8.23;5.95;;;11.30;69.70;;;;;;5074223;28;20409;-58
2022/04/16 02:11:46;;;;;;;9.52;5.95;;;11.30;69.70;;;;;;5065219;28;20021;-58
2022/04/16 02:14:12;;;;;;;9.50;6.93;;;11.30;69.90;;;;;;5073231;28;20036;-58
2022/04/16 02:16:38;;;;;;;7.43;5.95;;;11.30;69.90;;;;;;5067377;28;20035;-58
2022/04/16 02:19:03;;;;;;;7.47;6.30;;;11.30;69.90;;;;;;5074122;28;20028;-58
2022/04/16 02:21:32;;;;;;;8.48;5.80;;;11.30;70.00;;;;;;5069150;28;20028;-58
2022/04/16 02:23:58;;;;;;;7.30;6.03;;;11.20;69.90;;;;;;5054395;28;20033;-58
2022/04/16 02:26:25;;;;;;;9.10;6.53;;;11.20;70.00;;;;;;5071738;28;20103;-58
2022/04/16 02:28:51;;;;;;;7.78;6.00;;;11.20;70.10;;;;;;5074114;28;20480;-58
2022/04/16 02:31:17;;;;;;;8.15;5.72;;;11.20;70.90;;;;;;5072987;28;20040;-57
2022/04/16 02:33:43;;;;;;;7.90;6.20;;;11.10;70.30;;;;;;5065405;28;20422;-58
2022/04/16 02:36:09;;;;;;;7.65;6.45;;;11.10;70.30;;;;;;5072078;28;20073;-58
2022/04/16 02:38:35;;;;;;;8.23;6.55;;;11.10;70.40;;;;;;5066186;28;20028;-57
2022/04/16 02:41:01;;;;;;;9.23;6.38;;;11.00;70.50;;;;;;5069736;28;20040;-58
2022/04/16 02:43:26;;;;;;;7.25;6.07;;;11.00;70.60;;;;;;5072278;28;20028;-58
2022/04/16 02:48:36;;;;;;;8.50;6.15;;;11.00;70.70;;;;;;5072780;28;20032;-58
2022/04/16 02:51:02;;;;;;;8.85;6.50;;;11.00;70.80;;;;;;5067038;28;20029;-57
2022/04/16 02:53:29;;;;;;;7.43;5.90;;;11.00;70.80;;;;;;5073834;28;20039;-58
2022/04/16 02:55:55;;;;;;;8.32;6.50;;;11.00;70.80;;;;;;5073021;28;20035;-58
2022/04/16 02:58:22;;;;;;;9.30;6.85;;;11.00;70.90;;;;;;5073633;28;20036;-58
2022/04/16 03:00:48;;;;;;;7.22;6.25;;;10.90;71.00;;;;;;5072442;28;20534;-58
2022/04/16 03:03:14;;;;;;;7.80;6.35;;;10.90;71.00;;;;;;5052105;28;20028;-58
2022/04/16 03:05:41;;;;;;;8.93;7.13;;;10.90;71.10;;;;;;5060098;28;20357;-58
2022/04/16 03:08:07;;;;;;;7.78;6.18;;;10.90;71.00;;;;;;5067945;28;20037;-58
2022/04/16 03:10:33;;;;;;;6.82;5.80;;;10.90;71.00;;;;;;5073750;28;20029;-58
2022/04/16 03:12:59;;;;;;;7.03;5.82;;;10.90;71.10;;;;;;5065366;28;20438;-58
2022/04/16 03:18:10;;;;;;;7.45;6.25;;;10.90;71.10;;;;;;5075384;28;20082;-58
2022/04/16 03:20:37;;;;;;;9.40;6.65;;;11.00;71.10;;;;;;5068219;28;20115;-58
2022/04/16 03:23:03;;;;;;;8.25;6.88;;;11.00;71.10;;;;;;5062314;28;20384;-58
2022/04/16 03:25:29;;;;;;;7.72;6.57;;;11.00;71.10;;;;;;5072802;28;20043;-58
2022/04/16 03:27:55;;;;;;;8.50;7.22;;;11.00;71.20;;;;;;5072749;28;20028;-58
2022/04/16 03:30:23;;;;;;;6.75;6.03;;;11.00;71.30;;;;;;5070259;28;20025;-58
2022/04/16 03:32:50;;;;;;;8.63;6.57;;;11.00;71.10;;;;;;5072922;28;20031;-58
2022/04/16 03:35:19;;;;;;;7.50;6.20;;;11.10;71.20;;;;;;5072381;28;20047;-57
2022/04/16 03:37:45;;;;;;;7.90;6.60;;;11.10;71.10;;;;;;5074393;28;20028;-58
2022/04/16 03:40:12;;;;;;;7.88;6.60;;;11.20;71.10;;;;;;5057940;28;20028;-58
2022/04/16 03:42:49;;;;;;;9.25;6.72;;;11.20;71.00;;;;;;5063458;28;20028;-58
2022/04/16 03:45:20;;;;;;;9.43;7.47;;;11.20;71.00;;;;;;5059452;28;20067;-58
2022/04/16 03:47:47;;;;;;;8.52;6.53;;;11.30;71.00;;;;;;5072245;28;20035;-58
2022/04/16 03:50:14;;;;;;;8.43;6.50;;;11.40;71.00;;;;;;5072335;28;20609;-58
2022/04/16 03:52:43;;;;;;;8.43;6.78;;;11.40;70.70;;;;;;5072461;28;20035;-58
2022/04/16 04:00:46;;;;;;;8.98;6.82;;;11.60;70.60;;;;;;5071337;28;20047;-58
2022/04/16 04:03:13;;;;;;;8.15;7.03;;;11.70;70.50;;;;;;5069656;28;20496;-57
2022/04/16 04:05:39;;;;;;;9.70;7.40;;;11.70;70.30;;;;;;5070882;28;20024;-58
2022/04/16 04:08:09;;;;;;;7.57;6.55;;;11.80;70.20;;;;;;5072217;28;20476;-57
2022/04/16 04:10:35;;;;;;;10.70;7.07;;;11.90;70.10;;;;;;5077187;28;20032;-58
2022/04/16 04:13:02;;;;;;;8.57;7.13;;;12.00;69.80;;;;;;5052525;28;20477;-58
2022/04/16 04:15:29;;;;;;;9.07;6.75;;;12.10;69.60;;;;;;5071655;28;20033;-58
2022/04/16 04:17:55;;;;;;;9.35;7.00;;;12.20;69.50;;;;;;5072511;28;20451;-58
2022/04/16 04:20:20;;;;;;;8.90;6.93;;;12.30;69.40;;;;;;5072652;28;20429;-58
2022/04/16 04:22:46;;;;;;;7.68;6.35;;;12.50;69.50;;;;;;5072126;28;20020;-58
2022/04/16 04:25:12;;;;;;;9.20;6.88;;;12.60;69.40;;;;;;5072256;28;20136;-58
2022/04/16 04:27:37;;;;;;;9.32;6.88;;;12.80;69.10;;;;;;5061937;28;20033;-58
2022/04/16 04:30:04;;;;;;;8.95;6.60;;;13.00;69.00;;;;;;5066325;28;20021;-58
2022/04/16 04:32:30;;;;;;;7.70;6.53;;;13.30;68.80;;;;;;5069056;28;20108;-58
2022/04/16 04:34:56;;;;;;;9.05;6.70;;;13.60;68.10;;;;;;5054278;28;20116;-57
2022/04/16 04:37:22;;;;;;;8.68;7.22;;;13.90;67.40;;;;;;5071960;28;20039;-58
2022/04/16 04:39:49;;;;;;;8.43;7.38;;;14.00;66.60;;;;;;5072212;28;20041;-57
2022/04/16 04:42:32;;;;;;;9.02;8.13;;;14.10;66.30;;;;;;5066381;28;20029;-58
2022/04/16 04:44:58;;;;;;;10.18;8.50;;;14.10;66.10;;;;;;5068329;28;20095;-60
2022/04/16 04:47:30;;;;;;;11.35;8.55;;;14.20;66.30;;;;;;5064609;28;20029;-61
2022/04/16 04:49:55;;;;;;;9.45;7.93;;;14.30;66.10;;;;;;5062172;28;20029;-57
2022/04/16 04:52:24;;;;;;;10.02;8.85;;;14.40;66.00;;;;;;5072021;28;20392;-58
2022/04/16 04:54:50;;;;;;;10.32;8.48;;;14.40;65.70;;;;;;5058376;28;20086;-58
2022/04/16 04:57:15;;;;;;;12.07;8.02;;;14.50;65.60;;;;;;5071699;28;20039;-58
2022/04/16 04:59:43;;;;;;;10.65;8.05;;;14.50;65.50;;;;;;5072195;28;20029;-57
2022/04/16 05:02:09;;;;;;;10.85;8.10;;;14.50;65.30;;;;;;5073220;28;20582;-57
2022/04/16 05:04:35;;;;;;;10.75;8.35;;;14.60;65.40;;;;;;5061986;28;20067;-57
2022/04/16 05:07:03;;;;;;;12.40;8.77;;;14.60;65.20;;;;;;5070087;28;20037;-57
2022/04/16 05:09:29;;;;;;;10.30;8.35;;;14.70;65.10;;;;;;5082108;28;20103;-58
2022/04/16 05:11:54;;;;;;;9.82;8.43;;;14.80;65.00;;;;;;5068172;28;20452;-58
2022/04/16 05:14:21;;;;;;;9.73;7.70;;;14.90;64.70;;;;;;5075549;28;20032;-58
2022/04/16 05:16:47;;;;;;;10.65;8.23;;;14.90;64.70;;;;;;5079166;28;20033;-58
2022/04/16 05:19:14;;;;;;;11.57;8.65;;;15.00;64.60;;;;;;5074814;28;20391;-59
2022/04/16 05:21:40;;;;;;;9.15;8.25;;;15.00;64.50;;;;;;5075172;28;20031;-57
2022/04/16 05:24:06;;;;;;;10.38;8.18;;;15.00;64.50;;;;;;5077059;28;20037;-58
2022/04/16 05:26:33;;;;;;;9.75;8.15;;;15.00;64.50;;;;;;5075035;28;20099;-58
2022/04/16 05:28:58;;;;;;;10.65;8.65;;;15.00;64.50;;;;;;5070553;28;20035;-57
2022/04/16 05:31:26;;;;;;;12.90;8.40;;;14.90;64.40;;;;;;5071340;28;20095;-57
2022/04/16 05:36:37;;;;;;;11.18;8.82;;;15.00;64.60;;;;;;5072419;28;20027;-58
2022/04/16 05:39:02;;;;;;;10.93;8.63;;;15.00;64.70;;;;;;5073162;28;20467;-58
2022/04/16 05:41:28;;;;;;;8.85;7.60;;;15.10;64.70;;;;;;5058372;28;20025;-58
2022/04/16 05:43:54;;;;;;;11.35;8.88;;;15.10;65.40;;;;;;5073407;28;20101;-56
2022/04/16 05:46:19;;;;;;;9.93;8.48;;;15.20;64.70;;;;;;5079246;28;20024;-56
2022/04/16 05:48:46;;;;;;;11.38;8.43;;;15.20;64.70;;;;;;5074443;28;20063;-56
2022/04/16 05:51:12;;;;;;;9.25;8.27;;;15.30;64.70;;;;;;5071497;28;20021;-56
2022/04/16 05:53:39;;;;;;;10.27;9.18;;;15.30;64.70;;;;;;5070521;28;20756;-56
2022/04/16 05:56:05;;;;;;;11.27;8.68;;;15.30;64.70;;;;;;5064197;28;20107;-56
2022/04/16 05:58:31;;;;;;;11.38;8.05;;;15.30;64.90;;;;;;5074655;28;20033;-58
2022/04/16 06:00:57;;;;;;;10.90;9.02;;;15.30;64.80;;;;;;5070504;28;20039;-58
2022/04/16 06:03:24;;;;;;;10.13;8.00;;;15.30;64.80;;;;;;5074354;28;20484;-59
2022/04/16 06:05:50;;;;;;;8.57;7.45;;;15.30;64.80;;;;;;5074622;28;20047;-58
2022/04/16 06:08:16;;;;;;;10.43;9.13;;;15.20;64.70;;;;;;5072266;28;20060;-58
2022/04/16 06:10:42;;;;;;;11.45;8.82;;;15.20;64.80;;;;;;5076017;28;20067;-56
2022/04/16 06:13:07;;;;;;;12.13;8.80;;;15.20;65.00;;;;;;5062140;28;20583;-58
2022/04/16 06:15:33;;;;;;;9.60;7.88;;;15.10;65.10;;;;;;5064506;28;20025;-58
2022/04/16 06:17:59;;;;;;;9.98;8.18;;;15.10;65.20;;;;;;5072750;28;20032;-58
2022/04/16 06:20:24;;;;;;;10.30;8.07;;;15.00;65.20;;;;;;5072289;28;20479;-58
2022/04/16 06:22:51;;;;;;;11.90;9.25;;;15.00;65.30;;;;;;5072182;28;20149;-58
2022/04/16 06:25:16;;;;;;;10.60;8.68;;;15.00;65.50;;;;;;5073638;28;20094;-58
2022/04/16 06:27:42;;;;;;;12.50;8.73;;;15.00;65.60;;;;;;5068925;28;20423;-58
2022/04/16 06:30:11;;;;;;;9.65;8.48;;;14.90;65.70;;;;;;5072369;28;20020;-58
2022/04/16 06:32:38;;;;;;;11.50;9.23;;;14.90;65.90;;;;;;5073174;28;20065;-58
2022/04/16 06:35:05;;;;;;;10.43;8.90;;;14.90;65.90;;;;;;5073887;28;20043;-58
2022/04/16 06:37:35;;;;;;;10.45;8.95;;;14.90;66.00;;;;;;5067561;28;20070;-58
2022/04/16 06:40:02;;;;;;;9.65;8.65;;;15.00;66.00;;;;;;5073678;28;20048;-58
2022/04/16 06:42:28;;;;;;;10.52;8.80;;;15.00;66.00;;;;;;5070412;28;20021;-58
2022/04/16 06:44:54;;;;;;;11.63;9.52;;;15.00;66.00;;;;;;5073402;28;20090;-56
2022/04/16 06:47:19;;;;;;;11.55;8.68;;;15.10;66.10;;;;;;5071381;28;20087;-56
2022/04/16 06:49:45;;;;;;;10.38;9.05;;;15.10;66.60;;;;;;5063425;28;20029;-56
2022/04/16 06:52:12;;;;;;;10.05;8.38;;;15.10;65.90;;;;;;5073281;28;20040;-57
2022/04/16 06:54:38;;;;;;;11.35;8.88;;;15.10;65.90;;;;;;5059269;28;20032;-58
2022/04/16 06:57:04;;;;;;;11.00;8.63;;;15.20;65.90;;;;;;5069415;28;20032;-58
2022/04/16 06:59:30;;;;;;;10.15;8.57;;;15.30;65.90;;;;;;5073334;28;20029;-58
2022/04/16 07:01:55;;;;;;;10.18;8.65;;;15.30;65.80;;;;;;5071960;28;20029;-58
2022/04/16 07:04:21;;;;;;;9.15;7.85;;;15.40;65.80;;;;;;5070431;28;20107;-58
2022/04/16 07:06:47;;;;;;;9.07;8.15;;;15.40;65.70;;;;;;5070517;28;20025;-58
2022/04/16 07:09:12;;;;;;;10.13;8.00;;;15.50;65.50;;;;;;5068295;28;20098;-57
2022/04/16 07:11:38;;;;;;;9.23;8.13;;;15.60;65.40;;;;;;5060399;28;20021;-56
2022/04/16 07:14:04;;;;;;;10.35;8.85;;;15.60;65.30;;;;;;5072988;28;20100;-56
2022/04/16 07:16:29;;;;;;;10.25;7.88;;;15.70;65.30;;;;;;5072912;28;20147;-57
2022/04/16 07:18:55;;;;;;;10.48;8.50;;;15.70;65.00;;;;;;5071746;28;20421;-55
2022/04/16 07:21:20;;;;;;;9.35;7.93;;;15.80;65.00;;;;;;5060505;28;20059;-57
2022/04/16 07:23:46;;;;;;;10.10;8.10;;;15.80;64.90;;;;;;5064224;28;20086;-57
2022/04/16 07:26:12;;;;;;;8.93;7.88;;;15.70;64.70;;;;;;5065229;28;20045;-57
2022/04/16 07:28:37;;;;;;;9.75;7.65;;;15.70;64.70;;;;;;5066768;28;20415;-57
2022/04/16 07:31:03;;;;;;;11.20;7.93;;;15.70;64.70;;;;;;5064445;28;20021;-57
2022/04/16 07:33:29;;;;;;;10.00;7.60;;;15.70;64.90;;;;;;5072617;28;20036;-57
2022/04/16 07:35:55;;;;;;;9.70;8.02;;;15.60;64.90;;;;;;5072231;28;20123;-57
2022/04/16 07:38:22;;;;;;;11.43;8.50;;;15.60;64.90;;;;;;5066511;28;20472;-57
2022/04/16 07:40:48;;;;;;;9.23;8.32;;;15.60;65.00;;;;;;5061756;28;20036;-57
2022/04/16 07:43:18;;;;;;;9.35;8.18;;;15.60;65.00;;;;;;5067104;28;20383;-56
2022/04/16 07:45:43;;;;;;;9.85;7.97;;;15.60;65.00;;;;;;5075602;28;20063;-57
2022/04/16 07:48:10;;;;;;;9.50;7.93;;;15.50;65.20;;;;;;5072463;28;20483;-57
2022/04/16 07:50:35;;;;;;;8.35;7.35;;;15.60;65.30;;;;;;5065664;28;20494;-57
2022/04/16 07:53:02;;;;;;;10.57;7.82;;;15.60;65.30;;;;;;5065124;28;20225;-57
2022/04/16 07:55:31;;;;;;;10.93;8.00;;;15.50;65.40;;;;;;5063306;28;20035;-57
2022/04/16 07:57:57;;;;;;;8.73;7.28;;;15.60;65.60;;;;;;5069933;28;20109;-57
2022/04/16 08:00:23;;;;;;;9.05;7.57;;;15.60;65.80;;;;;;5063177;28;20028;-57
2022/04/16 08:02:49;;;;;;;9.13;7.13;;;15.70;65.80;;;;;;5068374;28;20545;-59
2022/04/16 08:05:15;;;;;;;8.23;6.90;;;15.80;65.90;;;;;;5067343;28;20025;-59
2022/04/16 08:07:44;;;;;;;9.95;7.78;;;15.90;66.00;;;;;;5066928;28;20021;-60
2022/04/16 08:10:10;;;;;;;9.90;7.47;;;16.00;65.80;;;;;;5058248;28;20105;-58
2022/04/16 08:12:37;;;;;;;9.27;8.32;;;16.10;65.80;;;;;;5064766;28;20047;-58
2022/04/16 08:15:03;;;;;;;8.55;7.65;;;16.30;65.70;;;;;;5066278;28;20024;-58
2022/04/16 08:17:29;;;;;;;10.48;8.30;;;16.40;65.50;;;;;;5064715;28;20044;-57
2022/04/16 08:19:55;;;;;;;9.63;8.05;;;16.40;65.30;;;;;;5065738;28;20025;-57
2022/04/16 08:22:22;;;;;;;9.48;7.80;;;16.50;65.20;;;;;;5067465;28;20020;-58
2022/04/16 08:27:36;;;;;;;9.60;7.88;;;16.60;64.70;;;;;;5061291;28;20398;-58
2022/04/16 08:30:02;;;;;;;9.32;7.47;;;16.60;64.50;;;;;;5068545;28;20032;-57
2022/04/16 08:32:28;;;;;;;9.98;8.05;;;16.70;64.60;;;;;;5070429;28;20578;-58
2022/04/16 08:34:53;;;;;;;10.55;7.97;;;16.70;64.60;;;;;;5072480;28;20032;-58
2022/04/16 08:37:19;;;;;;;8.57;7.50;;;16.70;64.40;;;;;;5064426;28;20468;-58
2022/04/16 08:39:45;;;;;;;8.80;7.80;;;16.70;64.50;;;;;;5073315;28;20086;-58
2022/04/16 08:42:11;;;;;;;9.75;8.00;;;16.70;64.60;;;;;;5066036;28;20111;-58
2022/04/16 08:44:39;;;;;;;11.15;8.27;;;16.70;64.70;;;;;;5072061;28;20029;-58
2022/04/16 08:47:06;;;;;;;9.25;8.25;;;16.70;64.90;;;;;;5072139;28;20123;-57
2022/04/16 08:49:33;;;;;;;9.27;7.72;;;16.70;64.80;;;;;;5074955;28;20038;-57
2022/04/16 08:51:59;;;;;;;9.60;8.60;;;16.80;64.80;;;;;;5073478;28;20036;-58
2022/04/16 08:54:25;;;;;;;9.43;8.30;;;16.80;64.80;;;;;;5069053;28;20037;-57
2022/04/16 08:56:51;;;;;;;9.82;8.50;;;16.80;64.80;;;;;;5066786;28;20460;-57
2022/04/16 08:59:17;;;;;;;9.90;8.70;;;16.80;64.80;;;;;;5065885;28;20036;-57
2022/04/16 09:01:43;;;;;;;11.80;8.60;;;16.80;64.80;;;;;;5071320;28;20024;-57
2022/04/16 09:04:21;;;;;;;9.52;8.35;;;16.80;65.00;;;;;;5070453;28;20036;-58
2022/04/16 09:07:02;;;;;;;11.55;8.45;;;16.80;65.10;;;;;;5073924;28;20476;-58
2022/04/16 09:09:28;;;;;;;9.82;8.80;;;16.80;65.20;;;;;;5065038;28;20070;-57
2022/04/16 09:11:54;;;;;;;10.93;9.00;;;16.70;65.10;;;;;;5071484;28;20029;-57
2022/04/16 09:14:31;;;;;;;11.60;8.52;;;16.70;65.30;;;;;;5064084;28;20025;-57
2022/04/16 09:16:57;;;;;;;9.38;8.43;;;16.80;65.50;;;;;;5067293;28;20063;-58
2022/04/16 09:19:28;;;;;;;9.68;8.60;;;16.70;65.40;;;;;;5073903;28;20021;-57
2022/04/16 09:21:54;;;;;;;9.60;8.35;;;16.70;65.40;;;;;;5066416;28;20024;-57
2022/04/16 09:24:20;;;;;;;9.50;8.32;;;16.70;65.40;;;;;;5068832;28;20052;-58
2022/04/16 09:26:49;;;;;;;9.20;8.23;;;16.60;65.50;;;;;;5060692;28;20096;-58
2022/04/16 09:29:16;;;;;;;8.95;8.05;;;16.60;65.70;;;;;;5074537;28;20028;-57
2022/04/16 09:31:45;;;;;;;9.77;8.68;;;16.50;65.90;;;;;;5073221;28;20071;-58
2022/04/16 09:34:22;;;;;;;10.02;8.45;;;16.50;66.10;;;;;;5068925;28;20060;-58
2022/04/16 09:36:49;;;;;;;10.73;9.63;;;16.60;66.30;;;;;;5070427;28;20044;-58
2022/04/16 09:39:16;;;;;;;9.63;8.65;;;16.50;66.10;;;;;;5073992;28;20036;-58
2022/04/16 09:41:44;;;;;;;9.82;8.88;;;16.50;66.10;;;;;;5071479;28;20032;-57
2022/04/16 09:44:25;;;;;;;9.73;8.73;;;16.50;66.10;;;;;;5069074;28;20535;-57
2022/04/16 09:46:51;;;;;;;;;;;16.50;65.90;;;;;;5060763;28;20108;-57
2022/04/16 09:49:18;;;;;;;10.18;8.77;;;16.50;65.90;;;;;;5067091;28;20427;-57
2022/04/16 09:51:45;;;;;;;9.77;8.77;;;16.40;66.00;;;;;;5061509;28;20047;-57
2022/04/16 09:54:13;;;;;;;10.45;9.35;;;16.40;66.50;;;;;;5046517;28;20021;-58
2022/04/16 09:56:48;;;;;;;9.90;8.90;;;16.40;66.50;;;;;;5069866;28;20523;-58
2022/04/16 09:59:16;;;;;;;10.23;9.23;;;16.40;66.50;;;;;;5072383;28;20025;-58
2022/04/16 10:01:47;;;;;;;10.65;8.65;;;16.30;66.50;;;;;;5072112;28;20458;-57
2022/04/16 10:04:20;;;;;;;10.00;8.90;;;16.30;66.60;;;;;;5066788;28;20379;-58
2022/04/16 10:06:47;;;;;;;10.07;8.48;;;16.30;66.70;;;;;;5069296;28;20099;-58
2022/04/16 10:09:22;;;;;;;9.63;8.63;;;16.10;66.70;;;;;;5072625;28;20476;-57
2022/04/16 10:14:54;;;;;;;11.05;9.48;;;16.00;67.60;;;;;;5072621;28;20078;-57
2022/04/16 10:17:49;;;;;;;10.65;9.20;;;15.90;68.00;;;;;;5071496;28;20043;-57
2022/04/16 10:20:19;;;;;;;9.82;8.80;;;15.80;68.50;;;;;;5060612;28;20028;-57
2022/04/16 10:22:56;;;;;;;11.10;9.20;;;15.70;69.00;;;;;;5063956;28;20086;-59
2022/04/16 10:25:34;;;;;;;9.77;8.77;;;15.60;69.20;;;;;;5071785;28;20051;-58
2022/04/16 10:28:12;;;;;;;10.32;9.25;;;15.60;69.40;;;;;;5070475;28;20108;-58
2022/04/16 10:30:37;;;;;;;9.85;8.45;;;15.60;69.60;;;;;;5064761;28;20052;-58
2022/04/16 10:33:16;;;;;;;10.45;9.35;;;15.50;69.80;;;;;;5069973;28;20025;-58
2022/04/16 10:35:53;;;;;;;9.90;8.88;;;15.50;70.00;;;;;;5070612;28;20087;-58
2022/04/16 10:38:32;;;;;;;10.65;9.55;;;15.50;70.20;;;;;;5068664;28;20029;-58
2022/04/16 10:41:09;;;;;;;10.73;9.63;;;15.40;70.10;;;;;;5053509;28;20025;-57
2022/04/16 10:43:34;;;;;;;10.10;9.10;;;15.40;70.30;;;;;;5058615;28;20036;-58
2022/04/16 10:46:08;;;;;;;10.57;9.50;;;15.30;70.30;;;;;;5060072;28;20036;-58
2022/04/16 10:48:36;;;;;;;10.93;9.52;;;15.30;70.60;;;;;;5070546;28;20020;-57
2022/04/16 10:51:04;;;;;;;11.63;10.00;;;15.30;70.90;;;;;;5071812;28;20032;-58
2022/04/16 10:53:34;;;;;;;11.52;10.32;;;15.20;71.30;;;;;;5066465;28;20110;-58
2022/04/16 10:56:17;;;;;;;12.98;10.60;;;15.20;71.60;;;;;;5063373;28;20040;-58
2022/04/16 10:58:47;;;;;;;13.07;11.75;;;15.10;71.80;;;;;;5066159;28;20025;-58
2022/04/16 11:01:24;;;;;;;14.82;12.40;;;15.10;72.10;;;;;;5068758;28;20464;-58
2022/04/16 11:03:50;;;;;;;15.50;12.68;;;15.00;72.50;;;;;;5058768;28;20029;-58
2022/04/16 11:06:17;;;;;;;16.20;13.55;;;15.00;72.90;;;;;;5063090;28;20035;-58
2022/04/16 11:08:45;;;;;;;16.58;14.77;;;14.90;73.10;;;;;;5065022;28;20025;-58
2022/04/16 11:11:14;;;;;;;15.98;13.35;;;14.90;73.40;;;;;;5067280;28;20021;-58
2022/04/16 11:13:42;;;;;;;17.23;15.32;;;14.90;73.60;;;;;;5063517;28;20415;-58
2022/04/16 11:16:08;;;;;;;16.33;14.48;;;14.80;73.90;;;;;;5070396;28;20120;-58
2022/04/16 11:18:38;;;;;;;17.00;15.20;;;14.80;74.30;;;;;;5070714;28;20086;-58
2022/04/16 11:21:08;;;;;;;15.77;14.18;;;14.80;74.70;;;;;;5061973;28;20033;-58
2022/04/16 11:23:47;;;;;;;16.10;14.40;;;14.70;74.90;;;;;;5058449;28;20075;-58
2022/04/16 11:34:41;;;;;;;16.15;13.98;;;14.50;75.30;;;;;;5067669;28;20190;-58
2022/04/16 11:37:07;;;;;;;16.58;14.88;;;14.50;75.50;;;;;;5070222;28;20028;-58
2022/04/16 11:39:36;;;;;;;16.17;14.02;;;14.40;75.80;;;;;;5070467;28;20024;-58
2022/04/16 11:42:07;;;;;;;17.15;15.18;;;14.40;76.20;;;;;;5057040;28;20032;-58
2022/04/16 11:44:42;;;;;;;16.88;15.02;;;14.40;76.50;;;;;;5070653;28;20032;-58
2022/04/16 11:47:14;;;;;;;17.67;14.45;;;14.40;76.70;;;;;;5060831;28;20052;-58
2022/04/16 11:49:40;;;;;;;;;;;14.40;77.10;;;;;;5063316;28;20555;-58
2022/04/16 11:52:07;;;;;;;14.57;12.65;;;14.30;77.00;;;;;;5067327;28;19914;-58
2022/04/16 11:54:33;;;;;;;15.20;13.60;;;14.30;77.00;;;;;;5060943;28;20030;-58
2022/04/16 11:56:59;;;;;;;14.90;12.68;;;14.30;77.40;;;;;;5066765;28;20035;-58
2022/04/16 11:59:26;;;;;;;14.73;13.13;;;14.30;77.60;;;;;;5069601;28;20025;-58
2022/04/16 12:01:59;;;;;;;14.85;12.43;;;14.30;78.00;;;;;;5059920;28;20123;-58
2022/04/16 12:04:41;;;;;;;13.52;11.48;;;14.30;77.90;;;;;;5066967;28;20475;-58
2022/04/16 12:07:11;;;;;;;12.57;11.30;;;14.20;77.70;;;;;;5063870;28;20035;-58
2022/04/16 12:09:41;;;;;;;13.00;11.60;;;14.20;77.70;;;;;;5066017;28;20023;-58
2022/04/16 12:12:07;;;;;;;14.00;12.48;;;14.10;77.90;;;;;;5069099;28;20070;-58
2022/04/16 12:14:32;;;;;;;13.30;11.90;;;14.00;78.20;;;;;;5069843;28;20483;-58
2022/04/16 12:17:01;;;;;;;14.88;13.38;;;14.00;78.40;;;;;;5069755;28;20102;-58
2022/04/16 12:19:31;;;;;;;15.23;13.65;;;14.00;78.90;;;;;;5071969;28;20099;-58
2022/04/16 12:21:58;;;;;;;12.90;11.60;;;13.90;79.10;;;;;;5070412;28;20036;-58
2022/04/16 12:24:29;;;;;;;13.20;11.90;;;13.90;79.40;;;;;;5071852;28;20040;-58
2022/04/16 12:26:58;;;;;;;13.68;12.20;;;13.90;79.60;;;;;;5071724;28;20021;-59
2022/04/16 12:29:31;;;;;;;13.85;12.45;;;13.90;79.80;;;;;;5068683;28;20102;-58
2022/04/16 12:31:58;;;;;;;15.00;13.27;;;13.90;80.00;;;;;;5058748;28;20053;-58
2022/04/16 12:34:25;;;;;;;14.70;12.63;;;13.90;80.20;;;;;;5072292;28;20029;-58
2022/04/16 12:36:52;;;;;;;14.55;12.98;;;13.90;80.30;;;;;;5075274;28;20024;-58
2022/04/16 12:39:17;;;;;;;17.05;13.90;;;13.80;80.40;;;;;;5068069;28;20086;-58
2022/04/16 12:41:43;;;;;;;14.70;13.10;;;13.80;80.50;;;;;;5070898;28;20021;-58
2022/04/16 12:44:09;;;;;;;14.75;13.02;;;13.80;80.60;;;;;;5070046;28;20380;-58
2022/04/16 12:46:35;;;;;;;14.82;13.30;;;13.70;80.80;;;;;;5071225;28;20472;-58
2022/04/16 12:49:00;;;;;;;15.02;13.43;;;13.70;80.90;;;;;;5070514;28;20032;-58
2022/04/16 12:51:27;;;;;;;15.55;13.60;;;13.70;81.00;;;;;;5071530;28;20491;-58
2022/04/16 12:53:53;;;;;;;14.68;13.15;;;13.70;81.30;;;;;;5071784;28;20036;-58
2022/04/16 12:56:19;;;;;;;15.68;13.98;;;13.70;81.50;;;;;;5072023;28;20391;-58
2022/04/16 12:58:45;;;;;;;16.40;14.68;;;13.70;81.70;;;;;;5062396;28;20029;-58
2022/04/16 13:01:10;;;;;;;15.65;14.02;;;13.60;81.80;;;;;;5066109;28;20029;-58
2022/04/16 13:03:36;;;;;;;15.73;14.10;;;13.60;81.90;;;;;;5070883;28;20395;-58
2022/04/16 13:06:02;;;;;;;16.70;14.85;;;13.60;82.10;;;;;;5072149;28;20032;-58
2022/04/16 13:08:30;;;;;;;16.50;14.75;;;13.60;82.30;;;;;;5074613;28;20035;-58
2022/04/16 13:10:56;;;;;;;15.80;14.20;;;13.50;82.60;;;;;;5080902;28;20028;-58